Terminal Aerodrome Forecast
Issued by NWS

Home | Current Version | Previous Version | Text Only | Print | Product List | Glossary On
Versions: 1 2 3 4 5 6 7 8 9 10 11 12 13 14 15 16 17 18
000
FTUS45 KRIW 252326
TAFCPR
TAF
KCPR 252326Z 2600/2624 22009KT P6SM VCSH SCT025 BKN045
     FM260300 29005KT P6SM SCT060
     FM261100 26005KT 1SM BR FEW001
     FM261700 23006KT P6SM SKC=

USA.gov is the U.S. government's official web portal to all federal, state and local government web resources and services.